createdAt,value
2023-02-11T00:00:14.851Z,49.76
2023-02-11T00:02:41.874Z,48.68
2023-02-11T00:05:08.916Z,48.35
2023-02-11T00:07:35.856Z,47.11
2023-02-11T00:10:03.055Z,48.54
2023-02-11T00:12:30.005Z,48.60
2023-02-11T00:14:57.031Z,47.53
2023-02-11T00:17:23.938Z,47.17
2023-02-11T00:19:51.677Z,46.59
2023-02-11T00:22:18.660Z,46.90
2023-02-11T00:24:45.610Z,48.17
2023-02-11T00:27:12.572Z,48.19
2023-02-11T00:29:39.594Z,47.89
2023-02-11T00:32:06.637Z,48.21
2023-02-11T00:34:33.746Z,47.88
2023-02-11T00:37:03.070Z,48.50
2023-02-11T00:39:30.256Z,48.41
2023-02-11T00:41:57.716Z,48.73
2023-02-11T00:44:24.678Z,48.77
2023-02-11T00:46:51.689Z,49.83
2023-02-11T00:49:18.728Z,50.17
2023-02-11T00:51:45.776Z,51.43
2023-02-11T00:54:12.809Z,51.49
2023-02-11T00:56:39.797Z,52.72
2023-02-11T00:59:06.696Z,53.33
2023-02-11T01:01:34.789Z,53.13
2023-02-11T01:04:01.963Z,52.61
2023-02-11T01:06:28.936Z,51.55
2023-02-11T01:08:55.887Z,51.14
2023-02-11T01:11:22.903Z,50.35
2023-02-11T01:13:50.174Z,48.98
2023-02-11T01:16:17.429Z,48.53
2023-02-11T01:18:45.625Z,48.31
2023-02-11T01:21:12.632Z,48.27
2023-02-11T01:23:39.672Z,49.45
2023-02-11T01:26:06.587Z,48.55
2023-02-11T01:28:33.744Z,48.72
2023-02-11T01:31:01.675Z,48.62
2023-02-11T01:33:28.906Z,49.14
2023-02-11T01:35:55.778Z,49.09
2023-02-11T01:38:25.110Z,48.75
2023-02-11T01:40:55.003Z,47.94
2023-02-11T01:43:23.394Z,47.63
2023-02-11T01:46:01.600Z,48.03
2023-02-11T01:48:36.425Z,49.06
2023-02-11T01:51:07.046Z,49.71
2023-02-11T01:53:54.072Z,50.20
2023-02-11T01:56:40.179Z,48.91
2023-02-11T01:59:11.692Z,49.40
2023-02-11T02:01:38.684Z,48.71
2023-02-11T02:04:05.687Z,48.97
2023-02-11T02:06:36.275Z,48.70
2023-02-11T02:09:11.524Z,47.85
2023-02-11T02:11:38.482Z,47.16
2023-02-11T02:14:05.469Z,47.82
2023-02-11T02:16:34.754Z,48.74
2023-02-11T02:19:26.886Z,50.63
2023-02-11T02:21:53.770Z,51.59
2023-02-11T02:24:56.646Z,50.91
2023-02-11T02:27:45.019Z,49.67
2023-02-11T02:30:40.145Z,49.59
2023-02-11T02:33:23.047Z,48.55
2023-02-11T02:35:55.290Z,48.90
2023-02-11T02:38:30.666Z,49.45
2023-02-11T02:41:03.961Z,50.01
2023-02-11T02:43:30.942Z,50.27
2023-02-11T02:46:19.704Z,50.65
2023-02-11T02:48:47.168Z,50.50
2023-02-11T02:51:37.899Z,50.28
2023-02-11T02:54:41.375Z,48.79
2023-02-11T02:57:17.764Z,48.25
2023-02-11T03:00:10.865Z,50.25
2023-02-11T03:02:40.786Z,52.35
2023-02-11T03:05:45.268Z,52.27
2023-02-11T03:08:17.991Z,52.14
2023-02-11T03:10:50.039Z,52.21
2023-02-11T03:13:18.222Z,51.84
2023-02-11T03:15:46.930Z,52.03
2023-02-11T03:18:15.882Z,51.81
2023-02-11T03:20:43.815Z,50.88
2023-02-11T03:23:10.668Z,50.84
2023-02-11T03:25:49.739Z,50.31
2023-02-11T03:28:33.089Z,49.77
2023-02-11T03:31:27.287Z,50.10
2023-02-11T03:34:12.797Z,50.12
2023-02-11T03:36:47.272Z,50.59
2023-02-11T03:39:16.620Z,51.67
2023-02-11T03:41:43.579Z,51.20
2023-02-11T03:44:10.515Z,51.03
2023-02-11T03:46:38.120Z,50.54
2023-02-11T03:49:08.778Z,49.46
2023-02-11T03:51:35.711Z,50.43
2023-02-11T03:54:04.018Z,49.81
2023-02-11T03:56:33.174Z,49.67
2023-02-11T03:59:00.120Z,49.75
2023-02-11T04:01:27.114Z,49.59
2023-02-11T04:03:54.062Z,49.68
2023-02-11T04:06:21.086Z,49.35
2023-02-11T04:08:48.135Z,49.76
2023-02-11T04:11:15.087Z,48.89
2023-02-11T04:13:42.021Z,50.34
2023-02-11T04:16:09.080Z,50.68
2023-02-11T04:18:36.200Z,51.00
2023-02-11T04:21:03.156Z,51.17
2023-02-11T04:23:30.068Z,50.72
2023-02-11T04:25:57.019Z,50.57
2023-02-11T04:28:24.109Z,51.29
2023-02-11T04:30:51.392Z,51.03
2023-02-11T04:33:18.352Z,51.65
2023-02-11T04:35:45.291Z,50.88
2023-02-11T04:38:12.237Z,50.54
2023-02-11T04:40:39.291Z,51.90
2023-02-11T04:43:06.373Z,53.14
2023-02-11T04:45:33.883Z,52.67
2023-02-11T04:48:03.084Z,52.66
2023-02-11T04:50:30.007Z,51.73
2023-02-11T04:52:57.021Z,51.48
2023-02-11T04:55:23.907Z,51.83
2023-02-11T04:57:50.843Z,51.30
2023-02-11T05:00:17.865Z,51.64
2023-02-11T05:02:44.792Z,52.23
2023-02-11T05:05:11.737Z,51.86
2023-02-11T05:07:38.655Z,51.99
2023-02-11T05:10:05.838Z,53.43
2023-02-11T05:12:32.813Z,55.02
2023-02-11T05:14:59.737Z,54.94
2023-02-11T05:17:26.723Z,55.22
2023-02-11T05:19:53.684Z,54.54
2023-02-11T05:22:22.055Z,52.80
2023-02-11T05:24:49.571Z,53.01
2023-02-11T05:27:16.549Z,52.03
2023-02-11T05:29:43.441Z,52.44
2023-02-11T05:32:10.441Z,52.71
2023-02-11T05:34:37.696Z,52.26
2023-02-11T05:37:04.677Z,52.76
2023-02-11T05:39:31.631Z,53.84
2023-02-11T05:41:58.670Z,54.73
2023-02-11T05:44:25.620Z,54.01
2023-02-11T05:46:52.608Z,53.51
2023-02-11T05:49:19.558Z,53.33
2023-02-11T05:51:46.600Z,52.41
2023-02-11T05:54:13.894Z,52.68
2023-02-11T05:56:43.123Z,52.82
2023-02-11T05:59:13.588Z,53.09
2023-02-11T06:01:40.650Z,53.31
2023-02-11T06:04:07.589Z,53.41
2023-02-11T06:06:34.526Z,52.48
2023-02-11T06:09:01.538Z,53.03
2023-02-11T06:11:28.506Z,53.56
2023-02-11T06:13:55.517Z,53.49
2023-02-11T06:16:22.579Z,53.38
2023-02-11T06:18:49.518Z,56.22
2023-02-11T06:21:16.434Z,54.19
2023-02-11T06:23:43.745Z,53.68
2023-02-11T06:26:17.500Z,52.75
2023-02-11T06:28:44.615Z,53.01
2023-02-11T06:31:12.102Z,52.23
2023-02-11T06:33:39.295Z,53.92
2023-02-11T06:36:16.742Z,55.18
2023-02-11T06:38:43.735Z,54.90
2023-02-11T06:41:13.874Z,54.93
2023-02-11T06:43:40.998Z,54.25
2023-02-11T06:46:08.055Z,54.54
2023-02-11T06:48:35.074Z,54.31
2023-02-11T06:51:06.202Z,53.92
2023-02-11T06:53:35.875Z,52.60
2023-02-11T06:56:07.418Z,53.56
2023-02-11T06:58:34.207Z,52.51
2023-02-11T07:01:06.785Z,54.78
2023-02-11T07:03:36.174Z,53.92
2023-02-11T07:06:05.524Z,53.82
2023-02-11T07:08:35.960Z,53.89
2023-02-11T07:11:11.874Z,54.51
2023-02-11T07:13:38.909Z,55.49
2023-02-11T07:16:07.383Z,55.03
2023-02-11T07:18:34.427Z,52.73
2023-02-11T07:21:05.689Z,52.52
2023-02-11T07:23:33.152Z,53.00
2023-02-11T07:26:09.838Z,51.76
2023-02-11T07:28:37.514Z,52.86
2023-02-11T07:31:12.316Z,52.29
2023-02-11T07:33:39.337Z,54.46
2023-02-11T07:36:07.133Z,55.15
2023-02-11T07:38:34.378Z,55.34
2023-02-11T07:41:02.289Z,53.71
2023-02-11T07:43:29.457Z,53.17
2023-02-11T07:45:56.580Z,52.21
2023-02-11T07:48:23.522Z,52.35
2023-02-11T07:50:50.631Z,52.78
2023-02-11T07:53:17.612Z,52.74
2023-02-11T07:55:44.662Z,53.55
2023-02-11T07:58:11.536Z,52.55
2023-02-11T08:00:38.534Z,51.35
2023-02-11T08:03:07.891Z,50.35
2023-02-11T08:05:38.240Z,50.27
2023-02-11T08:08:05.226Z,49.43
2023-02-11T08:10:32.285Z,49.41
2023-02-11T08:12:59.215Z,51.23
2023-02-11T08:15:26.259Z,52.91
2023-02-11T08:17:53.163Z,53.16
2023-02-11T08:20:20.246Z,51.89
2023-02-11T08:22:47.188Z,51.71
2023-02-11T08:25:14.147Z,56.28
2023-02-11T08:27:41.102Z,53.76
2023-02-11T08:30:08.491Z,52.76
2023-02-11T08:32:35.633Z,51.95
2023-02-11T08:35:02.579Z,50.52
2023-02-11T08:37:32.008Z,50.37
2023-02-11T08:39:59.923Z,50.48
2023-02-11T08:42:26.918Z,52.77
2023-02-11T08:44:53.811Z,53.90
2023-02-11T08:47:22.734Z,53.25
2023-02-11T08:49:49.800Z,53.45
2023-02-11T08:52:16.704Z,52.39
2023-02-11T08:54:43.612Z,58.14
2023-02-11T08:57:10.625Z,56.74
2023-02-11T08:59:40.079Z,54.84
2023-02-11T09:02:07.645Z,54.77
2023-02-11T09:04:34.629Z,54.17
2023-02-11T09:07:01.540Z,55.92
2023-02-11T09:09:28.561Z,54.24
2023-02-11T09:11:57.375Z,53.93
2023-02-11T09:14:24.761Z,53.49
2023-02-11T09:16:51.979Z,55.17
2023-02-11T09:19:19.238Z,54.40
2023-02-11T09:21:46.697Z,53.06
2023-02-11T09:24:13.708Z,51.52
2023-02-11T09:26:41.391Z,51.63
2023-02-11T09:29:08.386Z,49.54
2023-02-11T09:31:35.380Z,50.17
2023-02-11T09:34:04.464Z,50.06
2023-02-11T09:36:33.097Z,48.50
2023-02-11T09:39:01.077Z,48.21
2023-02-11T09:42:00.027Z,49.79
2023-02-11T09:44:28.538Z,48.27
2023-02-11T09:47:03.052Z,51.61
2023-02-11T09:49:36.503Z,50.25
2023-02-11T09:52:06.693Z,50.28
2023-02-11T09:54:59.264Z,48.67
2023-02-11T09:57:33.488Z,47.90
2023-02-11T10:00:01.641Z,49.68
2023-02-11T10:03:04.817Z,48.02
2023-02-11T10:05:59.223Z,46.57
2023-02-11T10:08:26.129Z,47.25
2023-02-11T10:10:57.825Z,47.13
2023-02-11T10:14:04.257Z,45.55
2023-02-11T10:16:58.037Z,49.24
2023-02-11T10:19:27.837Z,48.51
2023-02-11T10:22:15.700Z,48.75
2023-02-11T10:24:42.840Z,47.80
2023-02-11T10:27:16.778Z,49.70
2023-02-11T10:29:53.574Z,48.75
2023-02-11T10:32:40.268Z,46.45
2023-02-11T10:35:18.878Z,46.40
2023-02-11T10:37:45.836Z,47.87
2023-02-11T10:40:20.516Z,47.31
2023-02-11T10:42:55.468Z,48.50
2023-02-11T10:45:43.846Z,48.52
2023-02-11T10:48:39.356Z,48.66
2023-02-11T10:51:29.128Z,48.20
2023-02-11T10:54:05.396Z,50.03
2023-02-11T10:56:36.586Z,47.83
2023-02-11T10:59:23.607Z,50.28
2023-02-11T11:01:53.229Z,49.68
2023-02-11T11:04:37.392Z,49.83
2023-02-11T11:07:22.473Z,47.69
2023-02-11T11:09:49.363Z,47.12
2023-02-11T11:12:57.588Z,46.00
2023-02-11T11:15:26.529Z,48.07
2023-02-11T11:18:20.910Z,47.54
2023-02-11T11:20:56.171Z,47.28
2023-02-11T11:23:24.523Z,46.13
2023-02-11T11:26:11.374Z,47.60
2023-02-11T11:28:50.187Z,45.82
2023-02-11T11:31:23.717Z,45.99
2023-02-11T11:33:51.627Z,45.03
2023-02-11T11:36:21.479Z,43.79
2023-02-11T11:39:02.398Z,45.52
2023-02-11T11:41:31.283Z,46.32
2023-02-11T11:44:25.849Z,47.29
2023-02-11T11:47:37.396Z,47.07
2023-02-11T11:50:27.497Z,47.58
2023-02-11T11:53:04.561Z,45.61
2023-02-11T11:55:39.214Z,49.09
2023-02-11T11:58:09.662Z,46.72
2023-02-11T12:00:58.313Z,46.93
2023-02-11T12:03:32.642Z,49.69
2023-02-11T12:06:14.570Z,49.16
2023-02-11T12:08:55.657Z,49.13
2023-02-11T12:11:44.336Z,48.33
2023-02-11T12:14:33.632Z,46.77
2023-02-11T12:17:11.454Z,45.99
2023-02-11T12:19:41.337Z,46.46
2023-02-11T12:22:36.405Z,46.15
2023-02-11T12:25:21.574Z,46.42
2023-02-11T12:28:14.549Z,45.09
2023-02-11T12:31:00.072Z,46.34
2023-02-11T12:33:44.800Z,46.38
2023-02-11T12:36:24.332Z,47.73
2023-02-11T12:38:57.112Z,46.48
2023-02-11T12:41:56.616Z,46.82
2023-02-11T12:44:51.842Z,49.34
2023-02-11T12:47:25.684Z,47.14
2023-02-11T12:49:55.232Z,48.56
2023-02-11T12:52:51.121Z,50.09
2023-02-11T12:55:28.440Z,48.07
2023-02-11T12:57:56.940Z,48.33
2023-02-11T13:00:25.622Z,47.25
2023-02-11T13:03:11.302Z,45.62
2023-02-11T13:05:41.727Z,45.72
2023-02-11T13:08:17.092Z,46.49
2023-02-11T13:10:50.995Z,47.41
2023-02-11T13:13:39.440Z,46.40
2023-02-11T13:16:08.150Z,46.86
2023-02-11T13:18:49.705Z,46.00
2023-02-11T13:21:16.603Z,45.94
2023-02-11T13:24:02.917Z,46.53
2023-02-11T13:26:43.812Z,46.72
2023-02-11T13:29:34.763Z,46.87
2023-02-11T13:32:10.636Z,47.12
2023-02-11T13:34:43.699Z,45.68
2023-02-11T13:37:23.356Z,46.74
2023-02-11T13:40:01.511Z,47.41
2023-02-11T13:42:29.305Z,47.36
2023-02-11T13:44:56.254Z,45.76
2023-02-11T13:47:33.414Z,45.97
2023-02-11T13:50:00.861Z,45.66
2023-02-11T13:52:30.435Z,45.29
2023-02-11T13:55:02.061Z,46.60
2023-02-11T13:57:32.294Z,44.98
2023-02-11T14:00:00.990Z,47.33
2023-02-11T14:02:54.212Z,45.86
2023-02-11T14:05:48.657Z,45.24
2023-02-11T14:08:37.649Z,44.14
2023-02-11T14:11:10.962Z,44.50
2023-02-11T14:14:16.415Z,44.64
2023-02-11T14:16:58.426Z,45.57
2023-02-11T14:19:37.926Z,44.66
2023-02-11T14:22:18.416Z,43.37
2023-02-11T14:24:53.360Z,43.57
2023-02-11T14:27:42.190Z,44.43
2023-02-11T14:30:15.112Z,44.42
2023-02-11T14:33:11.465Z,43.75
2023-02-11T14:35:50.482Z,43.11
2023-02-11T14:38:17.357Z,43.62
2023-02-11T14:40:50.233Z,42.90
2023-02-11T14:43:20.374Z,42.54
2023-02-11T14:45:50.661Z,43.01
2023-02-11T14:48:18.848Z,43.64
2023-02-11T14:50:48.622Z,42.97
2023-02-11T14:53:21.608Z,46.27
2023-02-11T14:55:52.594Z,45.00
2023-02-11T14:58:19.553Z,43.99
2023-02-11T15:00:57.378Z,44.09
2023-02-11T15:03:29.363Z,43.97
2023-02-11T15:06:19.776Z,45.34
2023-02-11T15:09:01.035Z,44.86
2023-02-11T15:11:30.422Z,44.56
2023-02-11T15:13:57.680Z,44.73
2023-02-11T15:16:25.630Z,45.21
2023-02-11T15:18:58.578Z,45.72
2023-02-11T15:21:30.289Z,45.00
2023-02-11T15:24:21.006Z,46.71
2023-02-11T15:27:03.905Z,46.70
2023-02-11T15:29:38.479Z,45.01
2023-02-11T15:32:15.308Z,45.46
2023-02-11T15:34:43.343Z,47.00
2023-02-11T15:37:13.949Z,48.08
2023-02-11T15:39:41.619Z,47.54
2023-02-11T15:42:28.363Z,46.27
2023-02-11T15:45:08.621Z,45.30
2023-02-11T15:47:35.657Z,45.48
2023-02-11T15:50:02.669Z,45.06
2023-02-11T15:52:29.621Z,44.50
2023-02-11T15:54:56.860Z,44.42
2023-02-11T15:57:23.850Z,43.51
2023-02-11T15:59:54.666Z,43.36
2023-02-11T16:02:31.678Z,42.79
2023-02-11T16:05:06.278Z,44.34
2023-02-11T16:07:47.391Z,45.87
2023-02-11T16:10:21.580Z,46.54
2023-02-11T16:12:56.122Z,47.70
2023-02-11T16:15:38.284Z,48.05
2023-02-11T16:18:13.708Z,47.29
2023-02-11T16:20:40.674Z,47.02
2023-02-11T16:23:07.731Z,46.12
2023-02-11T16:25:35.209Z,46.23
2023-02-11T16:28:02.395Z,44.92
2023-02-11T16:30:37.720Z,46.55
2023-02-11T16:33:05.597Z,45.07
2023-02-11T16:35:32.647Z,45.98
2023-02-11T16:37:59.597Z,45.95
2023-02-11T16:40:26.601Z,45.56
2023-02-11T16:42:53.696Z,46.44
2023-02-11T16:45:20.944Z,47.80
2023-02-11T16:47:48.047Z,50.05
2023-02-11T16:50:22.637Z,49.78
2023-02-11T16:52:49.829Z,50.72
2023-02-11T16:55:16.818Z,49.73
2023-02-11T16:57:43.770Z,49.95
2023-02-11T17:00:11.612Z,48.03
2023-02-11T17:02:38.555Z,46.67
2023-02-11T17:05:07.694Z,47.00
2023-02-11T17:07:34.639Z,47.01
2023-02-11T17:10:02.246Z,48.57
2023-02-11T17:12:29.205Z,46.96
2023-02-11T17:14:56.275Z,46.06
2023-02-11T17:17:23.920Z,45.92
2023-02-11T17:19:51.455Z,45.07
2023-02-11T17:22:18.818Z,45.26
2023-02-11T17:24:45.859Z,44.90
2023-02-11T17:27:12.910Z,45.01
2023-02-11T17:29:39.851Z,45.15
2023-02-11T17:32:06.870Z,44.87
2023-02-11T17:34:33.846Z,45.38
2023-02-11T17:37:03.183Z,45.47
2023-02-11T17:39:30.133Z,45.38
2023-02-11T17:41:57.131Z,45.76
2023-02-11T17:44:24.041Z,46.76
2023-02-11T17:46:51.066Z,49.59
2023-02-11T17:49:18.005Z,51.47
2023-02-11T17:51:45.162Z,51.02
2023-02-11T17:54:13.726Z,49.56
2023-02-11T17:56:41.107Z,51.39
2023-02-11T17:59:08.650Z,51.94
2023-02-11T18:01:36.435Z,51.97
2023-02-11T18:04:03.441Z,51.33
2023-02-11T18:06:30.428Z,52.60
2023-02-11T18:08:59.767Z,52.56
2023-02-11T18:11:27.942Z,51.43
2023-02-11T18:13:55.129Z,52.77
2023-02-11T18:16:23.021Z,51.09
2023-02-11T18:18:51.226Z,50.84
2023-02-11T18:21:19.719Z,49.79
2023-02-11T18:23:47.164Z,47.90
2023-02-11T18:26:14.614Z,46.92
2023-02-11T18:28:44.523Z,46.54
2023-02-11T18:31:13.945Z,46.06
2023-02-11T18:33:41.108Z,47.36
2023-02-11T18:36:11.816Z,46.80
2023-02-11T18:38:39.247Z,47.36
2023-02-11T18:41:07.613Z,47.40
2023-02-11T18:43:34.954Z,48.74
2023-02-11T18:46:02.599Z,48.44
2023-02-11T18:48:29.668Z,47.88
2023-02-11T18:50:56.627Z,47.85
2023-02-11T18:53:24.724Z,48.69
2023-02-11T18:55:52.559Z,50.17
2023-02-11T18:58:21.449Z,49.07
2023-02-11T19:00:49.419Z,51.73
2023-02-11T19:03:16.902Z,51.52
2023-02-11T19:05:48.513Z,50.40
2023-02-11T19:08:16.001Z,49.44
2023-02-11T19:10:44.465Z,49.62
2023-02-11T19:13:12.057Z,50.42
2023-02-11T19:15:42.640Z,49.82
2023-02-11T19:18:09.836Z,48.38
2023-02-11T19:20:39.523Z,47.80
2023-02-11T19:23:07.094Z,47.26
2023-02-11T19:25:34.627Z,47.03
2023-02-11T19:28:01.653Z,47.02
2023-02-11T19:30:28.805Z,47.15
2023-02-11T19:32:57.328Z,47.37
2023-02-11T19:35:24.829Z,48.17
2023-02-11T19:37:51.847Z,48.42
2023-02-11T19:40:19.289Z,47.17
2023-02-11T19:42:46.261Z,46.37
2023-02-11T19:45:13.189Z,46.41
2023-02-11T19:47:40.124Z,45.88
2023-02-11T19:50:07.780Z,46.88
2023-02-11T19:52:37.076Z,46.91
2023-02-11T19:55:04.165Z,46.70
2023-02-11T19:57:31.106Z,47.45
2023-02-11T19:59:58.156Z,46.69
2023-02-11T20:02:25.124Z,47.17
2023-02-11T20:04:52.410Z,46.70
2023-02-11T20:07:19.354Z,46.79
2023-02-11T20:09:46.307Z,47.18
2023-02-11T20:12:13.840Z,47.20
2023-02-11T20:14:41.358Z,46.54
2023-02-11T20:17:08.367Z,46.92
2023-02-11T20:19:35.334Z,46.66
2023-02-11T20:22:02.317Z,47.09
2023-02-11T20:24:29.326Z,45.96
2023-02-11T20:26:56.585Z,45.92
2023-02-11T20:29:24.507Z,46.16
2023-02-11T20:31:51.533Z,46.02
2023-02-11T20:34:18.852Z,45.99
2023-02-11T20:36:51.991Z,46.34
2023-02-11T20:39:21.897Z,46.04
2023-02-11T20:41:49.063Z,46.45
2023-02-11T20:44:16.081Z,46.05
2023-02-11T20:46:45.941Z,46.52
2023-02-11T20:49:19.048Z,46.04
2023-02-11T20:51:46.210Z,45.98
2023-02-11T20:54:17.966Z,45.42
2023-02-11T20:56:47.844Z,45.82
2023-02-11T20:59:16.472Z,45.24
2023-02-11T21:01:45.797Z,45.85
2023-02-11T21:04:15.329Z,46.39
2023-02-11T21:06:44.766Z,45.77
2023-02-11T21:09:16.571Z,46.19
2023-02-11T21:11:43.609Z,46.65
2023-02-11T21:14:11.145Z,47.19
2023-02-11T21:16:38.290Z,47.31
2023-02-11T21:19:05.441Z,48.05
2023-02-11T21:21:32.445Z,48.95
2023-02-11T21:23:59.392Z,48.73
2023-02-11T21:26:26.485Z,51.53
2023-02-11T21:28:55.163Z,52.62
2023-02-11T21:31:27.630Z,53.07
2023-02-11T21:33:55.460Z,51.83
2023-02-11T21:36:23.238Z,53.29
2023-02-11T21:38:50.218Z,52.21
2023-02-11T21:41:17.939Z,51.48
2023-02-11T21:43:45.070Z,51.24
2023-02-11T21:46:13.242Z,52.69
2023-02-11T21:48:40.222Z,55.87
2023-02-11T21:51:08.766Z,56.17
2023-02-11T21:53:35.763Z,56.00
2023-02-11T21:56:14.116Z,54.82
2023-02-11T21:58:41.158Z,55.94
2023-02-11T22:01:12.037Z,55.13
2023-02-11T22:03:39.251Z,54.71
2023-02-11T22:06:10.253Z,54.53
2023-02-11T22:08:37.779Z,52.40
2023-02-11T22:11:05.689Z,51.46
2023-02-11T22:13:32.877Z,51.09
2023-02-11T22:16:05.327Z,49.56
2023-02-11T22:18:32.424Z,50.90
2023-02-11T22:21:18.699Z,50.71
2023-02-11T22:23:45.847Z,50.19
2023-02-11T22:26:15.320Z,49.31
2023-02-11T22:28:42.694Z,48.16
2023-02-11T22:31:20.722Z,49.06
2023-02-11T22:33:47.843Z,48.81
2023-02-11T22:36:19.987Z,47.53
2023-02-11T22:38:47.067Z,47.37
2023-02-11T22:41:14.212Z,47.39
2023-02-11T22:43:42.154Z,48.21
2023-02-11T22:46:09.566Z,48.26
2023-02-11T22:48:36.613Z,48.61
2023-02-11T22:51:27.311Z,47.81
2023-02-11T22:53:55.982Z,47.67
2023-02-11T22:56:23.110Z,47.66
2023-02-11T22:58:50.311Z,47.08
2023-02-11T23:01:17.577Z,47.78
2023-02-11T23:03:44.653Z,47.64
2023-02-11T23:06:11.649Z,47.92
2023-02-11T23:08:39.792Z,47.66
2023-02-11T23:11:12.142Z,47.08
2023-02-11T23:13:40.032Z,47.93
2023-02-11T23:16:08.699Z,48.46
2023-02-11T23:18:38.930Z,47.57
2023-02-11T23:21:16.576Z,47.72
2023-02-11T23:23:43.729Z,47.85
2023-02-11T23:26:11.769Z,48.00
2023-02-11T23:28:39.480Z,48.03
2023-02-11T23:31:26.547Z,48.06
2023-02-11T23:33:53.633Z,47.90
2023-02-11T23:36:20.975Z,47.27
2023-02-11T23:38:48.088Z,48.41
2023-02-11T23:41:15.277Z,48.80
2023-02-11T23:43:42.397Z,49.47
2023-02-11T23:46:09.512Z,50.53
2023-02-11T23:48:37.941Z,50.95
2023-02-11T23:51:05.160Z,50.82
2023-02-11T23:53:32.116Z,51.54
2023-02-11T23:55:59.105Z,53.44
2023-02-11T23:58:26.044Z,57.99
